MOC weather

Monteliban Airport
Codazzi, César Department, Colombia

Public forecast

Using degrees Celsius for public forecast. Weather courtesy of forecast.io.

Closest aviation weather report (METAR) to Monteliban Airport

Closest report is Alfonso López Pumarejo Airport, 32.9 nm (61.0 km) N. Retrieved 2019/10/19 11:00 UTC (39 minutes ago):

SKVP 191100Z VRB02KT 8000 VCFG FEW008 SCT070 24/23 A2993

Closest aviation forecast (TAF) to Monteliban Airport

Forecast is more than 12 hours old.

Closest forecast is Villa del Rosario Airport, 61.4 nm (113.7 km) ENE. Retrieved 2019/09/09 18:00 UTC (1 month ago):

TAF SVVS 091700Z 0918/1018 18004KT 9999 BKN016 TX30/0919Z TN22/1008Z TEMPO 0919/0921 9000 DZ TEMPO 0922/1002 24005KT 9999 SCT016 SCT150